createdAt,value
2018-04-22T00:00:27.519Z,14.27
2018-04-22T00:03:08.042Z,14.87
2018-04-22T00:05:37.021Z,15.98
2018-04-22T00:08:05.472Z,14.98
2018-04-22T00:10:33.858Z,15.77
2018-04-22T00:13:12.024Z,16.30
2018-04-22T00:15:56.220Z,14.52
2018-04-22T00:18:37.988Z,17.30
2018-04-22T00:21:09.130Z,14.90
2018-04-22T00:23:41.577Z,16.45
2018-04-22T00:26:13.508Z,16.90
2018-04-22T00:28:43.074Z,16.05
2018-04-22T00:31:11.463Z,15.98
2018-04-22T00:33:39.851Z,16.02
2018-04-22T00:36:08.253Z,15.95
2018-04-22T00:38:36.631Z,17.58
2018-04-22T00:41:05.039Z,15.50
2018-04-22T00:43:33.488Z,15.98
2018-04-22T00:46:02.129Z,15.98
2018-04-22T00:48:30.505Z,17.48
2018-04-22T00:50:58.895Z,17.05
2018-04-22T00:53:27.326Z,17.77
2018-04-22T00:55:56.492Z,21.85
2018-04-22T00:58:24.902Z,17.52
2018-04-22T01:00:54.049Z,17.52
2018-04-22T01:03:22.620Z,18.27
2018-04-22T01:05:50.997Z,18.62
2018-04-22T01:08:19.374Z,19.30
2018-04-22T01:10:47.780Z,19.05
2018-04-22T01:13:16.152Z,22.15
2018-04-22T01:15:44.556Z,18.30
2018-04-22T01:18:12.951Z,18.98
2018-04-22T01:20:42.121Z,17.60
2018-04-22T01:23:10.500Z,19.95
2018-04-22T01:25:38.880Z,19.48
2018-04-22T01:28:08.048Z,18.00
2018-04-22T01:30:36.433Z,19.40
2018-04-22T01:33:04.833Z,20.02
2018-04-22T01:35:33.295Z,21.33
2018-04-22T01:38:01.694Z,21.05
2018-04-22T01:40:30.099Z,19.55
2018-04-22T01:42:59.245Z,22.17
2018-04-22T01:45:27.648Z,20.62
2018-04-22T01:47:56.033Z,20.23
2018-04-22T01:50:24.790Z,21.05
2018-04-22T01:52:53.165Z,19.58
2018-04-22T01:55:21.546Z,20.60
2018-04-22T01:57:49.948Z,19.60
2018-04-22T02:00:18.325Z,21.77
2018-04-22T02:02:46.721Z,20.92
2018-04-22T02:05:15.106Z,20.40
2018-04-22T02:07:44.270Z,19.42
2018-04-22T02:10:12.675Z,22.02
2018-04-22T02:12:41.060Z,23.48
2018-04-22T02:15:10.222Z,23.50
2018-04-22T02:17:38.614Z,22.87
2018-04-22T02:20:08.128Z,20.55
2018-04-22T02:22:36.522Z,20.37
2018-04-22T02:25:05.776Z,22.85
2018-04-22T02:27:34.296Z,21.40
2018-04-22T02:30:02.674Z,21.87
2018-04-22T02:32:31.209Z,23.30
2018-04-22T02:34:59.584Z,20.77
2018-04-22T02:37:27.981Z,19.55
2018-04-22T02:39:56.390Z,19.95
2018-04-22T02:42:24.769Z,21.27
2018-04-22T02:44:53.300Z,20.58
2018-04-22T02:47:21.675Z,20.48
2018-04-22T02:49:50.057Z,20.85
2018-04-22T02:52:18.457Z,20.90
2018-04-22T02:54:46.837Z,18.95
2018-04-22T02:57:15.234Z,19.65
2018-04-22T02:59:43.609Z,18.62
2018-04-22T03:02:12.149Z,17.92
2018-04-22T03:04:40.521Z,20.33
2018-04-22T03:07:08.893Z,18.83
2018-04-22T03:09:37.301Z,20.05
2018-04-22T03:12:05.684Z,20.88
2018-04-22T03:14:34.081Z,20.88
2018-04-22T03:17:02.469Z,20.60
2018-04-22T03:19:31.117Z,20.17
2018-04-22T03:21:59.500Z,20.30
2018-04-22T03:24:27.871Z,20.48
2018-04-22T03:26:56.289Z,19.55
2018-04-22T03:29:25.478Z,20.08
2018-04-22T03:31:53.867Z,20.10
2018-04-22T03:34:23.018Z,20.45
2018-04-22T03:36:51.577Z,19.42
2018-04-22T03:39:19.944Z,19.80
2018-04-22T03:41:49.084Z,19.92
2018-04-22T03:44:17.484Z,20.15
2018-04-22T03:46:45.871Z,18.98
2018-04-22T03:49:14.624Z,19.77
2018-04-22T03:51:42.996Z,17.92
2018-04-22T03:54:11.372Z,17.92
2018-04-22T03:56:39.774Z,20.00
2018-04-22T03:59:08.156Z,21.75
2018-04-22T04:01:36.560Z,20.73
2018-04-22T04:04:04.928Z,19.60
2018-04-22T04:06:33.572Z,19.45
2018-04-22T04:09:01.939Z,18.75
2018-04-22T04:11:30.320Z,19.90
2018-04-22T04:13:58.724Z,20.85
2018-04-22T04:16:27.106Z,17.90
2018-04-22T04:19:13.442Z,20.08
2018-04-22T04:21:59.596Z,20.17
2018-04-22T04:27:51.106Z,19.25
2018-04-22T04:30:19.510Z,20.85
2018-04-22T04:32:47.893Z,19.02
2018-04-22T04:35:16.301Z,19.90
2018-04-22T04:37:44.672Z,21.65
2018-04-22T04:40:13.316Z,20.50
2018-04-22T04:42:41.685Z,21.65
2018-04-22T04:45:10.061Z,22.17
2018-04-22T04:47:38.477Z,19.15
2018-04-22T04:50:06.850Z,20.37
2018-04-22T04:52:35.318Z,18.90
2018-04-22T04:55:03.702Z,20.33
2018-04-22T04:57:32.130Z,19.55
2018-04-22T05:00:01.276Z,18.00
2018-04-22T05:02:29.653Z,20.58
2018-04-22T05:04:58.047Z,20.77
2018-04-22T05:07:26.437Z,20.80
2018-04-22T05:09:55.590Z,18.77
2018-04-22T05:12:23.967Z,18.60
2018-04-22T05:14:52.577Z,17.33
2018-04-22T05:17:20.973Z,18.35
2018-04-22T05:19:49.353Z,18.05
2018-04-22T05:22:17.789Z,19.87
2018-04-22T05:24:46.164Z,19.55
2018-04-22T05:27:14.561Z,20.65
2018-04-22T05:29:42.943Z,18.35
2018-04-22T05:32:11.730Z,20.50
2018-04-22T05:34:40.109Z,18.50
2018-04-22T05:37:08.489Z,18.15
2018-04-22T05:39:36.896Z,16.98
2018-04-22T05:42:05.425Z,17.10
2018-04-22T05:44:33.820Z,17.30
2018-04-22T05:47:02.209Z,17.50
2018-04-22T05:49:30.786Z,16.52
2018-04-22T05:51:59.190Z,16.83
2018-04-22T05:54:27.581Z,15.73
2018-04-22T05:56:55.988Z,16.37
2018-04-22T05:59:25.160Z,18.33
2018-04-22T06:01:53.569Z,16.98
2018-04-22T06:04:21.959Z,17.80
2018-04-22T06:06:50.685Z,17.10
2018-04-22T06:09:19.061Z,17.05
2018-04-22T06:11:47.461Z,15.93
2018-04-22T06:14:15.880Z,16.83
2018-04-22T06:16:44.273Z,16.10
2018-04-22T06:19:12.681Z,17.50
2018-04-22T06:21:41.068Z,16.30
2018-04-22T06:24:10.448Z,17.55
2018-04-22T06:26:38.897Z,16.92
2018-04-22T06:29:07.292Z,15.23
2018-04-22T06:31:35.973Z,16.70
2018-04-22T06:34:04.374Z,15.65
2018-04-22T06:36:32.777Z,15.43
2018-04-22T06:39:01.571Z,16.75
2018-04-22T06:41:30.755Z,16.52
2018-04-22T06:43:59.140Z,17.80
2018-04-22T06:46:27.520Z,15.90
2018-04-22T06:48:55.929Z,15.53
2018-04-22T06:51:24.317Z,16.67
2018-04-22T06:53:52.718Z,15.57
2018-04-22T06:56:21.097Z,16.80
2018-04-22T06:58:50.001Z,15.50
2018-04-22T07:01:18.393Z,16.23
2018-04-22T07:03:46.860Z,16.83
2018-04-22T07:06:15.280Z,15.27
2018-04-22T07:08:44.431Z,14.60
2018-04-22T07:11:12.838Z,14.10
2018-04-22T07:13:41.220Z,13.83
2018-04-22T07:16:09.965Z,14.40
2018-04-22T07:18:38.356Z,13.47
2018-04-22T07:21:07.069Z,12.67
2018-04-22T07:23:35.479Z,13.23
2018-04-22T07:26:03.878Z,11.60
2018-04-22T07:28:32.278Z,11.90
2018-04-22T07:31:00.657Z,12.50
2018-04-22T07:33:29.320Z,9.83
2018-04-22T07:35:57.694Z,11.17
2018-04-22T07:38:26.108Z,10.97
2018-04-22T07:40:54.512Z,12.07
2018-04-22T07:43:22.929Z,11.10
2018-04-22T07:45:51.334Z,10.67
2018-04-22T07:48:19.712Z,10.63
2018-04-22T07:50:48.128Z,11.13
2018-04-22T07:53:16.505Z,10.57
2018-04-22T07:55:44.880Z,10.57
2018-04-22T07:58:14.785Z,11.27
2018-04-22T08:00:44.674Z,10.90
2018-04-22T08:03:13.254Z,11.10
2018-04-22T08:05:41.656Z,11.73
2018-04-22T08:08:10.037Z,11.90
2018-04-22T08:10:38.441Z,11.47
2018-04-22T08:13:07.589Z,11.10
2018-04-22T08:15:36.071Z,12.17
2018-04-22T08:18:04.446Z,11.80
2018-04-22T08:20:32.825Z,12.40
2018-04-22T08:23:01.227Z,10.57
2018-04-22T08:25:29.600Z,12.50
2018-04-22T08:27:58.028Z,10.60
2018-04-22T08:30:26.446Z,13.40
2018-04-22T08:32:54.824Z,12.70
2018-04-22T08:35:23.221Z,12.20
2018-04-22T08:37:51.596Z,10.57
2018-04-22T08:40:20.008Z,12.77
2018-04-22T08:42:49.157Z,12.10
2018-04-22T08:45:17.585Z,13.07
2018-04-22T08:47:58.444Z,12.40
2018-04-22T08:50:40.633Z,12.13
2018-04-22T08:53:24.462Z,13.20
2018-04-22T08:55:57.155Z,12.33
2018-04-22T08:58:28.716Z,14.27
2018-04-22T09:00:58.973Z,12.10
2018-04-22T09:03:28.665Z,12.33
2018-04-22T09:06:02.557Z,11.40
2018-04-22T09:08:42.818Z,9.80
2018-04-22T09:11:13.529Z,12.90
2018-04-22T09:13:48.591Z,12.50
2018-04-22T09:16:17.522Z,12.77
2018-04-22T09:18:53.584Z,10.73
2018-04-22T09:21:28.322Z,11.20
2018-04-22T09:23:57.817Z,10.43
2018-04-22T09:26:26.247Z,11.47
2018-04-22T09:28:55.400Z,11.27
2018-04-22T09:31:23.788Z,9.17
2018-04-22T09:33:52.184Z,10.60
2018-04-22T09:36:22.069Z,10.63
2018-04-22T09:38:50.477Z,11.30
2018-04-22T09:41:18.865Z,9.30
2018-04-22T09:43:47.499Z,8.87
2018-04-22T09:46:15.905Z,9.77
2018-04-22T09:48:51.877Z,9.17
2018-04-22T09:51:21.035Z,8.93
2018-04-22T09:53:50.741Z,9.40
2018-04-22T09:56:20.047Z,7.87
2018-04-22T09:58:50.366Z,8.50
2018-04-22T10:01:22.695Z,6.70
2018-04-22T10:03:52.655Z,8.87
2018-04-22T10:06:22.948Z,9.30
2018-04-22T10:08:54.692Z,8.00
2018-04-22T10:11:25.036Z,8.07
2018-04-22T10:13:55.025Z,8.23
2018-04-22T10:16:25.637Z,7.10
2018-04-22T10:18:56.495Z,8.03
2018-04-22T10:21:27.112Z,8.07
2018-04-22T10:24:06.465Z,7.43
2018-04-22T10:26:35.541Z,10.03
2018-04-22T10:29:05.303Z,7.13
2018-04-22T10:31:43.263Z,6.90
2018-04-22T10:34:26.312Z,7.20
2018-04-22T10:36:58.972Z,7.23
2018-04-22T10:39:29.657Z,7.80
2018-04-22T10:42:00.504Z,6.00
2018-04-22T10:44:32.244Z,7.27
2018-04-22T10:47:03.993Z,7.93
2018-04-22T10:49:34.859Z,7.60
2018-04-22T10:52:04.650Z,7.37
2018-04-22T10:54:34.518Z,7.57
2018-04-22T10:57:04.058Z,8.50
2018-04-22T10:59:35.137Z,6.30
2018-04-22T11:02:04.489Z,6.90
2018-04-22T11:04:35.822Z,7.27
2018-04-22T11:07:07.032Z,7.30
2018-04-22T11:09:35.917Z,6.50
2018-04-22T11:12:05.456Z,7.30
2018-04-22T11:14:43.697Z,6.27
2018-04-22T11:17:23.617Z,6.67
2018-04-22T11:20:04.747Z,5.70
2018-04-22T11:22:35.329Z,7.00
2018-04-22T11:25:04.664Z,6.00
2018-04-22T11:27:36.129Z,6.03
2018-04-22T11:30:07.829Z,7.30
2018-04-22T11:32:39.846Z,5.30
2018-04-22T11:35:23.126Z,6.13
2018-04-22T11:37:56.423Z,6.20
2018-04-22T11:40:28.077Z,6.00
2018-04-22T11:43:08.796Z,5.83
2018-04-22T11:45:43.163Z,5.83
2018-04-22T11:48:14.002Z,5.33
2018-04-22T11:50:44.361Z,4.80
2018-04-22T11:53:20.035Z,4.20
2018-04-22T11:55:48.700Z,3.90
2018-04-22T11:58:17.080Z,4.10
2018-04-22T12:00:45.485Z,3.87
2018-04-22T12:03:13.891Z,3.90
2018-04-22T12:05:43.033Z,3.60
2018-04-22T12:08:12.016Z,3.60
2018-04-22T12:10:40.932Z,3.57
2018-04-22T12:13:09.349Z,4.00
2018-04-22T12:15:37.750Z,3.13
2018-04-22T12:18:06.302Z,3.93
2018-04-22T12:20:34.737Z,3.67
2018-04-22T12:23:03.116Z,4.40
2018-04-22T12:25:31.516Z,3.73
2018-04-22T12:27:59.897Z,3.83
2018-04-22T12:30:29.276Z,5.97
2018-04-22T12:32:57.657Z,3.90
2018-04-22T12:35:26.033Z,3.37
2018-04-22T12:37:57.139Z,3.63
2018-04-22T12:40:26.345Z,2.80
2018-04-22T12:42:54.756Z,3.00
2018-04-22T12:45:45.365Z,3.57
2018-04-22T12:48:30.957Z,35.47
2018-04-22T12:51:12.591Z,9.50
2018-04-22T12:53:41.075Z,23.40
2018-04-22T12:56:09.565Z,4.40
2018-04-22T12:58:38.026Z,4.27
2018-04-22T13:01:06.441Z,3.27
2018-04-22T13:03:34.837Z,6.10
2018-04-22T13:06:03.224Z,4.17
2018-04-22T13:08:32.591Z,4.13
2018-04-22T13:11:00.977Z,3.40
2018-04-22T13:13:29.352Z,3.37
2018-04-22T13:15:57.869Z,4.10
2018-04-22T13:18:26.234Z,3.23
2018-04-22T13:20:55.421Z,3.77
2018-04-22T13:23:23.789Z,3.43
2018-04-22T13:25:52.664Z,3.37
2018-04-22T13:28:21.050Z,3.03
2018-04-22T13:30:49.424Z,3.50
2018-04-22T13:33:17.818Z,2.67
2018-04-22T13:35:46.741Z,3.40
2018-04-22T13:38:16.071Z,3.80
2018-04-22T13:40:44.444Z,2.90
2018-04-22T13:43:13.873Z,3.20
2018-04-22T13:45:42.253Z,3.80
2018-04-22T13:48:10.625Z,4.00
2018-04-22T13:50:39.026Z,3.77
2018-04-22T13:53:07.480Z,2.60
2018-04-22T13:55:35.872Z,2.87
2018-04-22T13:58:04.276Z,2.80
2018-04-22T14:00:32.924Z,3.03
2018-04-22T14:03:01.288Z,3.77
2018-04-22T14:05:29.676Z,3.17
2018-04-22T14:07:58.172Z,2.90
2018-04-22T14:10:26.613Z,3.20
2018-04-22T14:12:55.808Z,3.57
2018-04-22T14:15:24.964Z,2.70
2018-04-22T14:17:53.624Z,3.03
2018-04-22T14:20:22.287Z,2.20
2018-04-22T14:22:50.800Z,3.50
2018-04-22T14:25:20.022Z,3.60
2018-04-22T14:27:49.184Z,3.40
2018-04-22T14:30:17.568Z,3.10
2018-04-22T14:32:46.209Z,3.73
2018-04-22T14:35:15.732Z,3.07
2018-04-22T14:37:44.135Z,4.40
2018-04-22T14:40:12.677Z,3.70
2018-04-22T14:42:41.841Z,4.00
2018-04-22T14:45:28.257Z,3.30
2018-04-22T14:47:56.707Z,2.93
2018-04-22T14:50:25.346Z,4.30
2018-04-22T14:52:53.755Z,3.00
2018-04-22T14:55:22.201Z,3.10
2018-04-22T14:57:51.396Z,4.07
2018-04-22T15:00:19.768Z,3.60
2018-04-22T15:02:48.956Z,2.87
2018-04-22T15:05:17.395Z,3.47
2018-04-22T15:07:45.742Z,3.80
2018-04-22T15:10:14.144Z,3.53
2018-04-22T15:12:42.539Z,3.00
2018-04-22T15:15:11.197Z,3.87
2018-04-22T15:17:39.571Z,3.50
2018-04-22T15:20:07.945Z,3.03
2018-04-22T15:22:36.352Z,4.47
2018-04-22T15:25:04.744Z,2.90
2018-04-22T15:27:33.140Z,3.63
2018-04-22T15:30:01.685Z,3.53
2018-04-22T15:32:30.377Z,3.40
2018-04-22T15:34:58.765Z,2.87
2018-04-22T15:37:27.133Z,4.43
2018-04-22T15:39:55.526Z,4.37
2018-04-22T15:42:23.905Z,3.83
2018-04-22T15:44:52.289Z,3.57
2018-04-22T15:47:20.700Z,3.23
2018-04-22T15:49:49.854Z,3.67
2018-04-22T15:52:18.281Z,3.67
2018-04-22T15:54:47.488Z,3.20
2018-04-22T15:57:15.882Z,3.60
2018-04-22T15:59:44.254Z,3.70
2018-04-22T16:02:12.645Z,3.13
2018-04-22T16:04:41.013Z,3.90
2018-04-22T16:07:09.424Z,4.80
2018-04-22T16:09:37.809Z,3.73
2018-04-22T16:12:06.233Z,4.30
2018-04-22T16:14:34.987Z,3.60
2018-04-22T16:17:03.319Z,3.63
2018-04-22T16:19:31.776Z,4.97
2018-04-22T16:22:00.908Z,4.00
2018-04-22T16:24:29.328Z,3.60
2018-04-22T16:26:57.701Z,3.40
2018-04-22T16:29:26.071Z,3.17
2018-04-22T16:31:54.489Z,3.53
2018-04-22T16:34:22.915Z,3.40
2018-04-22T16:36:51.487Z,3.37
2018-04-22T16:39:19.877Z,3.10
2018-04-22T16:41:48.441Z,3.83
2018-04-22T16:44:16.809Z,3.27
2018-04-22T16:46:45.184Z,4.47
2018-04-22T16:49:13.568Z,4.07
2018-04-22T16:51:41.941Z,4.13
2018-04-22T16:54:10.332Z,5.97
2018-04-22T16:56:38.742Z,6.87
2018-04-22T16:59:07.473Z,4.73
2018-04-22T17:01:35.865Z,3.50
2018-04-22T17:04:04.243Z,4.80
2018-04-22T17:06:32.773Z,5.23
2018-04-22T17:09:01.206Z,5.40
2018-04-22T17:11:29.593Z,4.07
2018-04-22T17:13:57.966Z,4.17
2018-04-22T17:16:26.545Z,4.30
2018-04-22T17:18:54.916Z,3.70
2018-04-22T17:21:23.293Z,4.00
2018-04-22T17:23:51.824Z,3.60
2018-04-22T17:26:20.196Z,3.30
2018-04-22T17:28:48.628Z,3.83
2018-04-22T17:31:17.096Z,5.03
2018-04-22T17:33:46.952Z,3.77
2018-04-22T17:36:16.005Z,2.97
2018-04-22T17:38:44.939Z,4.00
2018-04-22T17:41:13.855Z,3.40
2018-04-22T17:43:43.112Z,3.60
2018-04-22T17:46:11.509Z,3.30
2018-04-22T17:48:40.091Z,3.90
2018-04-22T17:51:08.545Z,3.73
2018-04-22T17:53:36.920Z,4.27
2018-04-22T17:56:05.481Z,4.10
2018-04-22T17:58:34.704Z,4.03
2018-04-22T18:01:03.173Z,4.17
2018-04-22T18:03:32.439Z,3.93
2018-04-22T18:06:00.819Z,3.73
2018-04-22T18:08:29.573Z,4.50
2018-04-22T18:10:58.125Z,4.50
2018-04-22T18:13:26.489Z,4.27
2018-04-22T18:15:56.142Z,5.73
2018-04-22T18:18:24.577Z,5.33
2018-04-22T18:20:53.740Z,4.60
2018-04-22T18:23:22.538Z,4.20
2018-04-22T18:25:51.085Z,5.07
2018-04-22T18:28:19.457Z,4.93
2018-04-22T18:30:47.864Z,5.03
2018-04-22T18:33:16.274Z,5.77
2018-04-22T18:35:45.417Z,9.10
2018-04-22T18:38:14.911Z,22.13
2018-04-22T18:40:43.309Z,12.00
2018-04-22T18:43:11.783Z,6.30
2018-04-22T18:45:40.184Z,5.50
2018-04-22T18:48:08.794Z,9.50
2018-04-22T18:50:37.365Z,11.40
2018-04-22T18:53:05.754Z,10.10
2018-04-22T18:55:35.170Z,6.57
2018-04-22T18:58:03.692Z,5.20
2018-04-22T19:00:32.282Z,5.90
2018-04-22T19:03:00.865Z,5.40
2018-04-22T19:05:29.311Z,6.07
2018-04-22T19:07:58.110Z,65.93
2018-04-22T19:10:26.533Z,16.20
2018-04-22T19:12:55.091Z,5.90
2018-04-22T19:15:23.613Z,5.27
2018-04-22T19:17:53.539Z,5.80
2018-04-22T19:20:22.069Z,5.43
2018-04-22T19:22:51.489Z,5.77
2018-04-22T19:25:19.953Z,5.60
2018-04-22T19:27:48.369Z,6.27
2018-04-22T19:30:17.583Z,4.90
2018-04-22T19:32:46.857Z,4.90
2018-04-22T19:35:16.870Z,8.07
2018-04-22T19:37:46.106Z,28.30
2018-04-22T19:40:14.564Z,13.07
2018-04-22T19:42:43.883Z,9.50
2018-04-22T19:45:13.092Z,12.67
2018-04-22T19:47:41.910Z,10.10
2018-04-22T19:50:10.311Z,8.23
2018-04-22T19:52:39.113Z,10.23
2018-04-22T19:55:09.563Z,9.20
2018-04-22T19:57:38.689Z,7.73
2018-04-22T20:00:07.807Z,7.23
2018-04-22T20:02:37.226Z,7.13
2018-04-22T20:05:05.738Z,6.80
2018-04-22T20:07:34.152Z,7.77
2018-04-22T20:10:02.988Z,6.77
2018-04-22T20:12:32.634Z,7.77
2018-04-22T20:15:01.254Z,8.63
2018-04-22T20:17:29.859Z,7.03
2018-04-22T20:19:59.224Z,7.23
2018-04-22T20:22:29.215Z,7.50
2018-04-22T20:24:57.979Z,7.17
2018-04-22T20:27:27.717Z,7.60
2018-04-22T20:29:56.428Z,6.23
2018-04-22T20:32:25.276Z,6.30
2018-04-22T20:34:53.648Z,7.00
2018-04-22T20:37:22.203Z,7.40
2018-04-22T20:39:50.664Z,6.93
2018-04-22T20:42:19.135Z,6.43
2018-04-22T20:44:47.549Z,7.47
2018-04-22T20:47:15.958Z,6.20
2018-04-22T20:49:44.531Z,7.27
2018-04-22T20:52:13.135Z,6.97
2018-04-22T20:54:41.632Z,6.00
2018-04-22T20:57:10.057Z,7.63
2018-04-22T20:59:38.501Z,6.33
2018-04-22T21:02:07.013Z,7.30
2018-04-22T21:04:35.396Z,7.33
2018-04-22T21:07:04.138Z,7.53
2018-04-22T21:09:32.534Z,6.53
2018-04-22T21:12:00.918Z,6.33
2018-04-22T21:14:29.318Z,6.00
2018-04-22T21:16:57.736Z,7.37
2018-04-22T21:19:26.153Z,7.33
2018-04-22T21:21:54.550Z,6.73
2018-04-22T21:24:24.035Z,6.57
2018-04-22T21:26:54.142Z,7.53
2018-04-22T21:29:23.321Z,6.90
2018-04-22T21:31:51.724Z,7.30
2018-04-22T21:34:20.105Z,7.00
2018-04-22T21:36:48.592Z,6.73
2018-04-22T21:39:16.960Z,6.60
2018-04-22T21:41:45.458Z,6.90
2018-04-22T21:44:13.840Z,7.13
2018-04-22T21:46:42.253Z,7.80
2018-04-22T21:49:10.673Z,7.20
2018-04-22T21:51:39.917Z,7.77
2018-04-22T21:54:14.228Z,8.37
2018-04-22T21:56:43.591Z,6.70
2018-04-22T21:59:12.048Z,7.20
2018-04-22T22:01:40.452Z,7.00
2018-04-22T22:04:14.167Z,6.67
2018-04-22T22:06:42.555Z,6.93
2018-04-22T22:09:10.952Z,7.70
2018-04-22T22:11:40.130Z,7.00
2018-04-22T22:14:08.508Z,8.60
2018-04-22T22:16:36.917Z,7.77
2018-04-22T22:19:06.057Z,8.30
2018-04-22T22:21:34.461Z,8.80
2018-04-22T22:24:02.842Z,8.40
2018-04-22T22:26:31.591Z,8.07
2018-04-22T22:29:00.336Z,8.20
2018-04-22T22:31:30.345Z,7.77
2018-04-22T22:33:59.562Z,8.87
2018-04-22T22:36:28.705Z,8.67
2018-04-22T22:38:57.115Z,7.80
2018-04-22T22:41:25.492Z,8.73
2018-04-22T22:43:54.645Z,8.07
2018-04-22T22:46:23.301Z,7.07
2018-04-22T22:48:52.538Z,8.63
2018-04-22T22:51:20.938Z,7.70
2018-04-22T22:53:49.314Z,8.00
2018-04-22T22:56:17.721Z,7.33
2018-04-22T22:58:46.871Z,8.07
2018-04-22T23:01:15.540Z,8.50
2018-04-22T23:03:43.917Z,7.87
2018-04-22T23:06:12.292Z,8.30
2018-04-22T23:08:40.686Z,8.90
2018-04-22T23:11:09.060Z,8.50
2018-04-22T23:13:37.464Z,7.60
2018-04-22T23:16:05.854Z,7.60
2018-04-22T23:18:34.789Z,7.50
2018-04-22T23:21:03.162Z,7.97
2018-04-22T23:23:31.537Z,8.80
2018-04-22T23:26:00.034Z,7.70
2018-04-22T23:28:28.438Z,10.30
2018-04-22T23:30:56.837Z,9.80
2018-04-22T23:33:25.238Z,7.80
2018-04-22T23:35:54.423Z,8.33
2018-04-22T23:38:22.801Z,7.23
2018-04-22T23:40:51.176Z,9.07
2018-04-22T23:43:19.580Z,9.20
2018-04-22T23:45:48.720Z,8.47
2018-04-22T23:48:17.129Z,8.93
2018-04-22T23:50:45.559Z,8.63
2018-04-22T23:53:14.362Z,8.63
2018-04-22T23:55:42.741Z,8.60
2018-04-22T23:58:11.127Z,8.27
